sensor_id;sensor_type;location;lat;lon;timestamp;temperature;humidity
7704;DHT22;3894;49.700;10.770;2023-03-23T02:50:23;10.80;99.90
7704;DHT22;3894;49.700;10.770;2023-03-23T02:52:52;10.80;99.90
7704;DHT22;3894;49.700;10.770;2023-03-23T02:55:28;10.80;99.90
7704;DHT22;3894;49.700;10.770;2023-03-23T02:58:05;10.80;99.90
7704;DHT22;3894;49.700;10.770;2023-03-23T03:00:31;10.80;99.90
7704;DHT22;3894;49.700;10.770;2023-03-23T03:03:01;10.80;99.90
7704;DHT22;3894;49.700;10.770;2023-03-23T03:10:59;10.80;99.90
7704;DHT22;3894;49.700;10.770;2023-03-23T03:18:54;10.80;99.90
7704;DHT22;3894;49.700;10.770;2023-03-23T03:21:25;10.80;99.90
7704;DHT22;3894;49.700;10.770;2023-03-23T03:23:55;10.80;99.90
7704;DHT22;3894;49.700;10.770;2023-03-23T03:26:26;10.80;99.90
7704;DHT22;3894;49.700;10.770;2023-03-23T03:28:59;10.80;99.90
7704;DHT22;3894;49.700;10.770;2023-03-23T03:31:32;10.80;99.90
7704;DHT22;3894;49.700;10.770;2023-03-23T03:34:06;10.80;99.90
7704;DHT22;3894;49.700;10.770;2023-03-23T03:36:36;10.80;99.90
7704;DHT22;3894;49.700;10.770;2023-03-23T03:39:12;10.70;99.90
7704;DHT22;3894;49.700;10.770;2023-03-23T03:41:46;10.70;99.90
7704;DHT22;3894;49.700;10.770;2023-03-23T03:44:12;10.70;99.90
7704;DHT22;3894;49.700;10.770;2023-03-23T03:46:48;10.70;99.90
7704;DHT22;3894;49.700;10.770;2023-03-23T03:49:15;10.70;99.90
7704;DHT22;3894;49.700;10.770;2023-03-23T03:51:47;10.70;99.90
7704;DHT22;3894;49.700;10.770;2023-03-23T03:54:15;10.70;99.90
7704;DHT22;3894;49.700;10.770;2023-03-23T03:56:52;10.70;99.90
7704;DHT22;3894;49.700;10.770;2023-03-23T03:59:23;10.70;99.90
7704;DHT22;3894;49.700;10.770;2023-03-23T04:01:49;10.70;99.90
7704;DHT22;3894;49.700;10.770;2023-03-23T04:04:27;10.70;99.90
7704;DHT22;3894;49.700;10.770;2023-03-23T04:06:58;10.70;99.90
7704;DHT22;3894;49.700;10.770;2023-03-23T04:09:28;10.70;99.90
7704;DHT22;3894;49.700;10.770;2023-03-23T04:11:59;10.70;99.90
7704;DHT22;3894;49.700;10.770;2023-03-23T04:14:36;10.70;99.90
7704;DHT22;3894;49.700;10.770;2023-03-23T04:17:05;10.80;99.90
7704;DHT22;3894;49.700;10.770;2023-03-23T04:19:38;10.80;99.90
7704;DHT22;3894;49.700;10.770;2023-03-23T04:22:11;10.80;99.90
7704;DHT22;3894;49.700;10.770;2023-03-23T04:24:42;10.80;99.90
7704;DHT22;3894;49.700;10.770;2023-03-23T04:27:22;10.80;99.90
7704;DHT22;3894;49.700;10.770;2023-03-23T04:29:56;10.80;99.90
7704;DHT22;3894;49.700;10.770;2023-03-23T04:32:27;10.80;99.90
7704;DHT22;3894;49.700;10.770;2023-03-23T04:35:04;10.80;99.90
7704;DHT22;3894;49.700;10.770;2023-03-23T04:37:30;10.70;99.90
7704;DHT22;3894;49.700;10.770;2023-03-23T04:39:57;10.70;99.90
7704;DHT22;3894;49.700;10.770;2023-03-23T04:42:30;10.70;99.90
7704;DHT22;3894;49.700;10.770;2023-03-23T04:44:57;10.70;99.90
7704;DHT22;3894;49.700;10.770;2023-03-23T04:47:26;10.70;99.90
7704;DHT22;3894;49.700;10.770;2023-03-23T04:49:56;10.70;99.90
7704;DHT22;3894;49.700;10.770;2023-03-23T04:52:30;10.70;99.90
7704;DHT22;3894;49.700;10.770;2023-03-23T04:54:59;10.70;99.90
7704;DHT22;3894;49.700;10.770;2023-03-23T04:57:25;10.70;99.90
7704;DHT22;3894;49.700;10.770;2023-03-23T04:59:54;10.80;99.90
7704;DHT22;3894;49.700;10.770;2023-03-23T05:02:51;10.80;99.90
7704;DHT22;3894;49.700;10.770;2023-03-23T05:05:23;10.80;99.90
7704;DHT22;3894;49.700;10.770;2023-03-23T05:07:57;10.80;99.90
7704;DHT22;3894;49.700;10.770;2023-03-23T05:10:27;10.90;99.90
7704;DHT22;3894;49.700;10.770;2023-03-23T05:13:01;10.90;99.90
7704;DHT22;3894;49.700;10.770;2023-03-23T05:15:33;10.90;99.90
7704;DHT22;3894;49.700;10.770;2023-03-23T05:17:59;11.00;99.90
7704;DHT22;3894;49.700;10.770;2023-03-23T05:20:38;11.10;99.90
7704;DHT22;3894;49.700;10.770;2023-03-23T05:23:08;11.10;99.90
7704;DHT22;3894;49.700;10.770;2023-03-23T05:25:38;11.10;99.90
7704;DHT22;3894;49.700;10.770;2023-03-23T05:28:10;11.10;99.90
7704;DHT22;3894;49.700;10.770;2023-03-23T05:30:42;11.10;99.90
7704;DHT22;3894;49.700;10.770;2023-03-23T05:33:11;11.10;99.90
7704;DHT22;3894;49.700;10.770;2023-03-23T05:35:37;11.20;99.90
7704;DHT22;3894;49.700;10.770;2023-03-23T05:38:06;11.20;99.90
7704;DHT22;3894;49.700;10.770;2023-03-23T05:40:34;11.20;99.90
7704;DHT22;3894;49.700;10.770;2023-03-23T05:45:38;11.30;99.90
7704;DHT22;3894;49.700;10.770;2023-03-23T05:48:04;11.30;99.90
7704;DHT22;3894;49.700;10.770;2023-03-23T05:50:30;11.30;99.90
7704;DHT22;3894;49.700;10.770;2023-03-23T05:52:56;11.40;99.90
7704;DHT22;3894;49.700;10.770;2023-03-23T05:55:22;11.40;99.90
7704;DHT22;3894;49.700;10.770;2023-03-23T05:57:48;11.40;99.90
7704;DHT22;3894;49.700;10.770;2023-03-23T06:00:14;11.40;99.90
7704;DHT22;3894;49.700;10.770;2023-03-23T06:02:40;11.40;99.90
7704;DHT22;3894;49.700;10.770;2023-03-23T06:05:09;11.40;99.90
7704;DHT22;3894;49.700;10.770;2023-03-23T06:07:35;11.40;99.90
7704;DHT22;3894;49.700;10.770;2023-03-23T06:10:06;11.50;99.90
7704;DHT22;3894;49.700;10.770;2023-03-23T06:12:32;11.50;99.90
7704;DHT22;3894;49.700;10.770;2023-03-23T06:14:58;11.60;99.90
7704;DHT22;3894;49.700;10.770;2023-03-23T06:17:24;11.60;99.90
7704;DHT22;3894;49.700;10.770;2023-03-23T06:19:49;11.60;99.90
7704;DHT22;3894;49.700;10.770;2023-03-23T06:22:16;11.60;99.90
7704;DHT22;3894;49.700;10.770;2023-03-23T06:24:42;11.60;99.90
7704;DHT22;3894;49.700;10.770;2023-03-23T06:27:07;11.60;99.90
7704;DHT22;3894;49.700;10.770;2023-03-23T06:29:34;11.60;99.90
7704;DHT22;3894;49.700;10.770;2023-03-23T06:32:01;11.60;99.90
7704;DHT22;3894;49.700;10.770;2023-03-23T06:34:27;11.60;99.90
7704;DHT22;3894;49.700;10.770;2023-03-23T06:36:53;11.60;99.90
7704;DHT22;3894;49.700;10.770;2023-03-23T06:39:19;11.60;99.90
7704;DHT22;3894;49.700;10.770;2023-03-23T06:41:45;11.60;99.90
7704;DHT22;3894;49.700;10.770;2023-03-23T06:44:10;11.60;99.90
7704;DHT22;3894;49.700;10.770;2023-03-23T06:46:38;11.50;99.90
7704;DHT22;3894;49.700;10.770;2023-03-23T06:49:04;11.50;99.90
7704;DHT22;3894;49.700;10.770;2023-03-23T06:51:30;11.50;99.90
7704;DHT22;3894;49.700;10.770;2023-03-23T06:53:56;11.50;99.90
7704;DHT22;3894;49.700;10.770;2023-03-23T06:56:23;11.50;99.90
7704;DHT22;3894;49.700;10.770;2023-03-23T06:58:48;11.50;99.90
7704;DHT22;3894;49.700;10.770;2023-03-23T07:01:14;11.50;99.90
7704;DHT22;3894;49.700;10.770;2023-03-23T07:03:41;11.40;99.90
7704;DHT22;3894;49.700;10.770;2023-03-23T07:06:08;11.40;99.90
7704;DHT22;3894;49.700;10.770;2023-03-23T07:08:34;11.40;99.90
7704;DHT22;3894;49.700;10.770;2023-03-23T07:11:00;11.30;99.90
7704;DHT22;3894;49.700;10.770;2023-03-23T07:13:26;11.30;99.90
7704;DHT22;3894;49.700;10.770;2023-03-23T07:15:52;11.30;99.90
7704;DHT22;3894;49.700;10.770;2023-03-23T07:18:17;11.30;99.90
7704;DHT22;3894;49.700;10.770;2023-03-23T07:20:46;11.30;99.90
7704;DHT22;3894;49.700;10.770;2023-03-23T07:23:12;11.30;99.90
7704;DHT22;3894;49.700;10.770;2023-03-23T07:25:38;11.30;99.90
7704;DHT22;3894;49.700;10.770;2023-03-23T07:28:04;11.30;99.90
7704;DHT22;3894;49.700;10.770;2023-03-23T07:30:29;11.30;99.90
7704;DHT22;3894;49.700;10.770;2023-03-23T07:32:58;11.40;99.90
7704;DHT22;3894;49.700;10.770;2023-03-23T07:35:24;11.40;99.90
7704;DHT22;3894;49.700;10.770;2023-03-23T07:37:51;11.40;99.90
7704;DHT22;3894;49.700;10.770;2023-03-23T07:40:17;11.40;99.90
7704;DHT22;3894;49.700;10.770;2023-03-23T07:42:52;11.40;99.90
7704;DHT22;3894;49.700;10.770;2023-03-23T07:45:18;11.40;99.90
7704;DHT22;3894;49.700;10.770;2023-03-23T07:47:43;11.40;99.90
7704;DHT22;3894;49.700;10.770;2023-03-23T07:50:09;11.40;99.90
7704;DHT22;3894;49.700;10.770;2023-03-23T07:52:36;11.40;99.90
7704;DHT22;3894;49.700;10.770;2023-03-23T07:55:02;11.40;99.90
7704;DHT22;3894;49.700;10.770;2023-03-23T07:57:30;11.40;99.90
7704;DHT22;3894;49.700;10.770;2023-03-23T07:59:56;11.40;99.90
7704;DHT22;3894;49.700;10.770;2023-03-23T08:02:23;11.30;99.90
7704;DHT22;3894;49.700;10.770;2023-03-23T08:04:49;11.30;99.90
7704;DHT22;3894;49.700;10.770;2023-03-23T08:07:16;11.30;99.90
7704;DHT22;3894;49.700;10.770;2023-03-23T08:09:43;11.30;99.90
7704;DHT22;3894;49.700;10.770;2023-03-23T08:12:09;11.30;99.90
7704;DHT22;3894;49.700;10.770;2023-03-23T08:14:35;11.30;99.90
7704;DHT22;3894;49.700;10.770;2023-03-23T08:17:00;11.30;99.90
7704;DHT22;3894;49.700;10.770;2023-03-23T08:19:26;11.30;99.90
7704;DHT22;3894;49.700;10.770;2023-03-23T08:21:52;11.40;99.90
7704;DHT22;3894;49.700;10.770;2023-03-23T08:24:19;11.40;99.90
7704;DHT22;3894;49.700;10.770;2023-03-23T08:26:45;11.40;99.90
7704;DHT22;3894;49.700;10.770;2023-03-23T08:29:11;11.50;99.90
7704;DHT22;3894;49.700;10.770;2023-03-23T08:31:38;11.50;99.90
7704;DHT22;3894;49.700;10.770;2023-03-23T08:34:05;11.50;99.90
7704;DHT22;3894;49.700;10.770;2023-03-23T08:36:35;11.60;99.90
7704;DHT22;3894;49.700;10.770;2023-03-23T08:39:03;11.60;99.90
7704;DHT22;3894;49.700;10.770;2023-03-23T08:41:30;11.60;99.90
7704;DHT22;3894;49.700;10.770;2023-03-23T08:43:56;11.60;99.90
7704;DHT22;3894;49.700;10.770;2023-03-23T08:46:23;11.70;99.90
7704;DHT22;3894;49.700;10.770;2023-03-23T08:48:49;11.80;99.90
7704;DHT22;3894;49.700;10.770;2023-03-23T08:51:14;11.80;99.90
7704;DHT22;3894;49.700;10.770;2023-03-23T08:53:40;11.90;99.90
7704;DHT22;3894;49.700;10.770;2023-03-23T08:56:09;11.80;99.90
7704;DHT22;3894;49.700;10.770;2023-03-23T08:58:38;11.90;99.90
7704;DHT22;3894;49.700;10.770;2023-03-23T09:01:06;11.90;99.90
7704;DHT22;3894;49.700;10.770;2023-03-23T09:03:33;11.90;99.90
7704;DHT22;3894;49.700;10.770;2023-03-23T09:06:01;12.00;99.90
7704;DHT22;3894;49.700;10.770;2023-03-23T09:08:28;12.00;99.90
7704;DHT22;3894;49.700;10.770;2023-03-23T09:10:58;12.00;99.90
7704;DHT22;3894;49.700;10.770;2023-03-23T09:13:24;12.10;99.90
7704;DHT22;3894;49.700;10.770;2023-03-23T09:15:50;12.10;99.90
7704;DHT22;3894;49.700;10.770;2023-03-23T09:18:16;12.20;99.90
7704;DHT22;3894;49.700;10.770;2023-03-23T09:20:42;12.30;99.90
7704;DHT22;3894;49.700;10.770;2023-03-23T09:23:09;12.30;99.90
7704;DHT22;3894;49.700;10.770;2023-03-23T09:25:35;12.40;99.90
7704;DHT22;3894;49.700;10.770;2023-03-23T09:28:00;12.40;99.90
7704;DHT22;3894;49.700;10.770;2023-03-23T09:30:29;12.50;99.90
7704;DHT22;3894;49.700;10.770;2023-03-23T09:32:55;12.50;99.90
7704;DHT22;3894;49.700;10.770;2023-03-23T09:35:22;12.60;99.90
7704;DHT22;3894;49.700;10.770;2023-03-23T09:37:50;12.70;99.90
7704;DHT22;3894;49.700;10.770;2023-03-23T09:40:32;12.80;99.90
7704;DHT22;3894;49.700;10.770;2023-03-23T09:48:26;12.80;99.90
7704;DHT22;3894;49.700;10.770;2023-03-23T09:53:45;12.90;99.90
7704;DHT22;3894;49.700;10.770;2023-03-23T09:56:14;12.90;99.90
7704;DHT22;3894;49.700;10.770;2023-03-23T10:02:11;13.00;99.90
7704;DHT22;3894;49.700;10.770;2023-03-23T10:04:49;13.10;99.90
7704;DHT22;3894;49.700;10.770;2023-03-23T10:07:22;13.10;99.90
7704;DHT22;3894;49.700;10.770;2023-03-23T10:09:52;13.20;99.90
7704;DHT22;3894;49.700;10.770;2023-03-23T10:12:39;13.30;99.90
7704;DHT22;3894;49.700;10.770;2023-03-23T10:15:14;13.40;99.90
7704;DHT22;3894;49.700;10.770;2023-03-23T10:23:13;13.80;99.90
7704;DHT22;3894;49.700;10.770;2023-03-23T10:26:00;13.80;99.90
7704;DHT22;3894;49.700;10.770;2023-03-23T10:28:35;13.80;99.90
7704;DHT22;3894;49.700;10.770;2023-03-23T10:31:01;13.70;99.90
7704;DHT22;3894;49.700;10.770;2023-03-23T10:33:41;13.70;99.90
7704;DHT22;3894;49.700;10.770;2023-03-23T10:38:41;13.50;99.90
7704;DHT22;3894;49.700;10.770;2023-03-23T10:41:14;13.50;99.90
7704;DHT22;3894;49.700;10.770;2023-03-23T10:43:41;13.50;99.90
7704;DHT22;3894;49.700;10.770;2023-03-23T10:49:32;13.40;99.90
7704;DHT22;3894;49.700;10.770;2023-03-23T10:55:00;13.40;99.90
7704;DHT22;3894;49.700;10.770;2023-03-23T10:57:29;13.50;99.90
7704;DHT22;3894;49.700;10.770;2023-03-23T11:00:00;13.50;99.90
7704;DHT22;3894;49.700;10.770;2023-03-23T11:02:31;13.50;99.90
7704;DHT22;3894;49.700;10.770;2023-03-23T11:05:01;13.50;99.90
7704;DHT22;3894;49.700;10.770;2023-03-23T11:07:32;13.50;99.90
7704;DHT22;3894;49.700;10.770;2023-03-23T11:10:16;13.40;99.90
7704;DHT22;3894;49.700;10.770;2023-03-23T11:12:45;13.40;99.90
7704;DHT22;3894;49.700;10.770;2023-03-23T11:15:28;13.40;99.90
7704;DHT22;3894;49.700;10.770;2023-03-23T11:17:55;13.30;99.90
7704;DHT22;3894;49.700;10.770;2023-03-23T11:20:22;13.30;99.90
7704;DHT22;3894;49.700;10.770;2023-03-23T11:22:48;13.20;99.90
7704;DHT22;3894;49.700;10.770;2023-03-23T11:25:14;13.10;99.90
7704;DHT22;3894;49.700;10.770;2023-03-23T11:27:40;13.10;99.90
7704;DHT22;3894;49.700;10.770;2023-03-23T11:30:26;13.10;99.90
7704;DHT22;3894;49.700;10.770;2023-03-23T11:32:54;13.20;99.90
7704;DHT22;3894;49.700;10.770;2023-03-23T11:35:25;13.30;99.90
7704;DHT22;3894;49.700;10.770;2023-03-23T11:37:54;13.40;99.90
7704;DHT22;3894;49.700;10.770;2023-03-23T11:40:26;13.40;99.90
7704;DHT22;3894;49.700;10.770;2023-03-23T11:45:31;13.40;99.90
7704;DHT22;3894;49.700;10.770;2023-03-23T11:51:04;13.60;99.90
7704;DHT22;3894;49.700;10.770;2023-03-23T11:53:57;13.60;99.90
7704;DHT22;3894;49.700;10.770;2023-03-23T11:56:36;13.60;99.90
7704;DHT22;3894;49.700;10.770;2023-03-23T11:59:08;13.60;99.90
7704;DHT22;3894;49.700;10.770;2023-03-23T12:04:24;13.60;99.90
7704;DHT22;3894;49.700;10.770;2023-03-23T12:27:48;14.00;99.90
7704;DHT22;3894;49.700;10.770;2023-03-23T12:30:24;14.10;99.90
7704;DHT22;3894;49.700;10.770;2023-03-23T12:36:04;14.10;99.90
7704;DHT22;3894;49.700;10.770;2023-03-23T12:41:54;14.00;99.90
7704;DHT22;3894;49.700;10.770;2023-03-23T12:44:48;14.00;99.90
7704;DHT22;3894;49.700;10.770;2023-03-23T12:47:36;13.90;99.90
7704;DHT22;3894;49.700;10.770;2023-03-23T12:50:35;14.00;99.90
7704;DHT22;3894;49.700;10.770;2023-03-23T12:53:09;14.10;99.90
7704;DHT22;3894;49.700;10.770;2023-03-23T12:55:45;14.10;99.90
7704;DHT22;3894;49.700;10.770;2023-03-23T12:58:26;14.10;99.90
7704;DHT22;3894;49.700;10.770;2023-03-23T13:00:56;14.10;99.90
7704;DHT22;3894;49.700;10.770;2023-03-23T13:03:29;14.10;99.90
7704;DHT22;3894;49.700;10.770;2023-03-23T13:09:24;14.00;99.90
7704;DHT22;3894;49.700;10.770;2023-03-23T13:11:53;13.90;99.90
7704;DHT22;3894;49.700;10.770;2023-03-23T13:17:28;13.80;99.90
7704;DHT22;3894;49.700;10.770;2023-03-23T13:20:01;13.70;99.90
7704;DHT22;3894;49.700;10.770;2023-03-23T13:25:06;13.70;99.90
7704;DHT22;3894;49.700;10.770;2023-03-23T13:27:34;13.70;99.90
7704;DHT22;3894;49.700;10.770;2023-03-23T13:30:01;13.70;99.90
7704;DHT22;3894;49.700;10.770;2023-03-23T13:32:35;13.80;99.90
7704;DHT22;3894;49.700;10.770;2023-03-23T13:35:11;13.90;99.90
7704;DHT22;3894;49.700;10.770;2023-03-23T13:37:44;13.90;99.90
7704;DHT22;3894;49.700;10.770;2023-03-23T13:42:51;14.00;99.90
7704;DHT22;3894;49.700;10.770;2023-03-23T13:45:22;14.10;99.90
7704;DHT22;3894;49.700;10.770;2023-03-23T13:47:48;14.20;99.90
7704;DHT22;3894;49.700;10.770;2023-03-23T13:52:52;14.10;99.90
7704;DHT22;3894;49.700;10.770;2023-03-23T14:03:11;14.00;99.90
7704;DHT22;3894;49.700;10.770;2023-03-23T14:05:50;14.00;99.90
7704;DHT22;3894;49.700;10.770;2023-03-23T14:11:09;14.10;99.90
7704;DHT22;3894;49.700;10.770;2023-03-23T14:16:23;14.20;99.90
7704;DHT22;3894;49.700;10.770;2023-03-23T14:18:58;14.30;99.90
7704;DHT22;3894;49.700;10.770;2023-03-23T14:21:36;14.40;99.90
7704;DHT22;3894;49.700;10.770;2023-03-23T14:24:11;14.40;99.90
7704;DHT22;3894;49.700;10.770;2023-03-23T14:26:37;14.50;99.90
7704;DHT22;3894;49.700;10.770;2023-03-23T14:29:04;14.50;99.90
7704;DHT22;3894;49.700;10.770;2023-03-23T14:31:31;14.50;99.90
7704;DHT22;3894;49.700;10.770;2023-03-23T14:34:04;14.40;99.90
7704;DHT22;3894;49.700;10.770;2023-03-23T14:36:31;14.40;99.90
7704;DHT22;3894;49.700;10.770;2023-03-23T14:39:05;14.40;99.90
7704;DHT22;3894;49.700;10.770;2023-03-23T14:41:35;14.40;99.90
7704;DHT22;3894;49.700;10.770;2023-03-23T14:44:04;14.30;99.90
7704;DHT22;3894;49.700;10.770;2023-03-23T14:46:34;14.30;99.90
7704;DHT22;3894;49.700;10.770;2023-03-23T14:49:02;14.30;99.90
7704;DHT22;3894;49.700;10.770;2023-03-23T14:51:29;14.30;99.90
7704;DHT22;3894;49.700;10.770;2023-03-23T14:53:57;14.30;99.90
7704;DHT22;3894;49.700;10.770;2023-03-23T14:56:23;14.30;99.90
7704;DHT22;3894;49.700;10.770;2023-03-23T14:58:53;14.30;99.90
7704;DHT22;3894;49.700;10.770;2023-03-23T15:01:28;14.30;99.90
7704;DHT22;3894;49.700;10.770;2023-03-23T15:04:09;14.30;99.90
7704;DHT22;3894;49.700;10.770;2023-03-23T15:06:37;14.30;99.90
7704;DHT22;3894;49.700;10.770;2023-03-23T15:09:05;14.20;99.90
7704;DHT22;3894;49.700;10.770;2023-03-23T15:11:36;14.20;99.90
7704;DHT22;3894;49.700;10.770;2023-03-23T15:14:17;14.20;99.90
7704;DHT22;3894;49.700;10.770;2023-03-23T15:16:51;14.10;99.90
7704;DHT22;3894;49.700;10.770;2023-03-23T15:19:42;14.10;99.90
7704;DHT22;3894;49.700;10.770;2023-03-23T15:24:41;14.10;99.90
7704;DHT22;3894;49.700;10.770;2023-03-23T15:29:56;14.10;99.90
7704;DHT22;3894;49.700;10.770;2023-03-23T15:32:28;14.10;99.90
7704;DHT22;3894;49.700;10.770;2023-03-23T15:34:56;14.10;99.90
7704;DHT22;3894;49.700;10.770;2023-03-23T15:37:34;14.00;99.90
7704;DHT22;3894;49.700;10.770;2023-03-23T15:40:05;14.10;99.90
7704;DHT22;3894;49.700;10.770;2023-03-23T15:42:33;14.10;99.90
7704;DHT22;3894;49.700;10.770;2023-03-23T15:45:05;14.10;99.90
7704;DHT22;3894;49.700;10.770;2023-03-23T15:52:39;14.20;99.90
7704;DHT22;3894;49.700;10.770;2023-03-23T15:55:28;14.20;99.90
7704;DHT22;3894;49.700;10.770;2023-03-23T15:57:56;14.30;99.90
7704;DHT22;3894;49.700;10.770;2023-03-23T16:00:26;14.30;99.90
7704;DHT22;3894;49.700;10.770;2023-03-23T16:02:59;14.20;99.90
7704;DHT22;3894;49.700;10.770;2023-03-23T16:05:31;14.20;99.90
7704;DHT22;3894;49.700;10.770;2023-03-23T16:07:58;14.20;99.90
7704;DHT22;3894;49.700;10.770;2023-03-23T16:10:27;14.20;99.90
7704;DHT22;3894;49.700;10.770;2023-03-23T16:12:56;14.20;99.90
7704;DHT22;3894;49.700;10.770;2023-03-23T16:15:34;14.20;99.90
7704;DHT22;3894;49.700;10.770;2023-03-23T16:18:00;14.10;99.90
7704;DHT22;3894;49.700;10.770;2023-03-23T16:20:28;14.10;99.90
7704;DHT22;3894;49.700;10.770;2023-03-23T16:22:54;14.10;99.90
7704;DHT22;3894;49.700;10.770;2023-03-23T16:25:20;14.10;99.90
7704;DHT22;3894;49.700;10.770;2023-03-23T16:27:46;14.10;99.90
7704;DHT22;3894;49.700;10.770;2023-03-23T16:30:26;14.10;99.90
7704;DHT22;3894;49.700;10.770;2023-03-23T16:32:54;14.10;99.90
7704;DHT22;3894;49.700;10.770;2023-03-23T16:35:21;14.10;99.90
7704;DHT22;3894;49.700;10.770;2023-03-23T16:37:49;14.10;99.90
7704;DHT22;3894;49.700;10.770;2023-03-23T16:40:17;14.00;99.90
7704;DHT22;3894;49.700;10.770;2023-03-23T16:42:43;14.00;99.90
7704;DHT22;3894;49.700;10.770;2023-03-23T16:45:09;13.90;99.90
7704;DHT22;3894;49.700;10.770;2023-03-23T16:47:35;13.90;99.90
7704;DHT22;3894;49.700;10.770;2023-03-23T16:50:03;13.90;99.90
7704;DHT22;3894;49.700;10.770;2023-03-23T16:52:33;13.90;99.90
7704;DHT22;3894;49.700;10.770;2023-03-23T16:54:59;13.80;99.90
7704;DHT22;3894;49.700;10.770;2023-03-23T16:57:26;13.80;99.90
7704;DHT22;3894;49.700;10.770;2023-03-23T16:59:52;13.80;99.90
7704;DHT22;3894;49.700;10.770;2023-03-23T17:02:18;13.80;99.90
7704;DHT22;3894;49.700;10.770;2023-03-23T17:04:45;13.70;99.90
7704;DHT22;3894;49.700;10.770;2023-03-23T17:07:16;13.70;99.90
7704;DHT22;3894;49.700;10.770;2023-03-23T17:09:42;13.60;99.90
7704;DHT22;3894;49.700;10.770;2023-03-23T17:12:12;13.60;99.90
7704;DHT22;3894;49.700;10.770;2023-03-23T17:14:38;13.50;99.90
7704;DHT22;3894;49.700;10.770;2023-03-23T17:17:07;13.50;99.90
7704;DHT22;3894;49.700;10.770;2023-03-23T17:19:33;13.50;99.90
7704;DHT22;3894;49.700;10.770;2023-03-23T17:22:01;13.50;99.90
7704;DHT22;3894;49.700;10.770;2023-03-23T17:24:27;13.50;99.90
7704;DHT22;3894;49.700;10.770;2023-03-23T17:26:54;13.40;99.90
7704;DHT22;3894;49.700;10.770;2023-03-23T17:29:20;13.40;99.90
7704;DHT22;3894;49.700;10.770;2023-03-23T17:31:49;13.40;99.90
7704;DHT22;3894;49.700;10.770;2023-03-23T17:34:16;13.30;99.90
7704;DHT22;3894;49.700;10.770;2023-03-23T17:36:42;13.30;99.90
7704;DHT22;3894;49.700;10.770;2023-03-23T17:39:11;13.30;99.90
7704;DHT22;3894;49.700;10.770;2023-03-23T17:41:41;13.20;99.90
7704;DHT22;3894;49.700;10.770;2023-03-23T17:44:06;13.20;99.90
7704;DHT22;3894;49.700;10.770;2023-03-23T17:46:34;13.20;99.90
7704;DHT22;3894;49.700;10.770;2023-03-23T17:49:00;13.20;99.90
7704;DHT22;3894;49.700;10.770;2023-03-23T17:51:26;13.10;99.90
7704;DHT22;3894;49.700;10.770;2023-03-23T17:53:52;13.10;99.90
7704;DHT22;3894;49.700;10.770;2023-03-23T17:56:18;13.00;99.90
7704;DHT22;3894;49.700;10.770;2023-03-23T17:58:44;13.00;99.90
7704;DHT22;3894;49.700;10.770;2023-03-23T18:01:09;13.00;99.90
7704;DHT22;3894;49.700;10.770;2023-03-23T18:03:35;13.00;99.90
7704;DHT22;3894;49.700;10.770;2023-03-23T18:06:04;13.00;99.90
7704;DHT22;3894;49.700;10.770;2023-03-23T18:08:32;12.90;99.90
7704;DHT22;3894;49.700;10.770;2023-03-23T18:10:59;12.90;99.90
7704;DHT22;3894;49.700;10.770;2023-03-23T18:13:26;13.00;99.90
7704;DHT22;3894;49.700;10.770;2023-03-23T18:15:54;12.90;99.90
7704;DHT22;3894;49.700;10.770;2023-03-23T18:18:21;12.90;99.90
7704;DHT22;3894;49.700;10.770;2023-03-23T18:20:46;12.90;99.90
7704;DHT22;3894;49.700;10.770;2023-03-23T18:23:13;12.90;99.90
7704;DHT22;3894;49.700;10.770;2023-03-23T18:25:39;12.80;99.90
7704;DHT22;3894;49.700;10.770;2023-03-23T18:28:05;12.80;99.90
7704;DHT22;3894;49.700;10.770;2023-03-23T18:30:32;12.80;99.90
7704;DHT22;3894;49.700;10.770;2023-03-23T18:32:58;12.80;99.90
7704;DHT22;3894;49.700;10.770;2023-03-23T18:35:24;12.80;99.90
7704;DHT22;3894;49.700;10.770;2023-03-23T18:37:50;12.80;99.90
7704;DHT22;3894;49.700;10.770;2023-03-23T18:40:16;12.80;99.90
7704;DHT22;3894;49.700;10.770;2023-03-23T18:42:44;12.80;99.90
7704;DHT22;3894;49.700;10.770;2023-03-23T18:45:10;12.80;99.90
7704;DHT22;3894;49.700;10.770;2023-03-23T18:47:36;12.80;99.90
7704;DHT22;3894;49.700;10.770;2023-03-23T18:50:06;12.80;99.90
7704;DHT22;3894;49.700;10.770;2023-03-23T18:52:32;12.80;99.90
7704;DHT22;3894;49.700;10.770;2023-03-23T18:55:03;12.70;99.90
7704;DHT22;3894;49.700;10.770;2023-03-23T18:57:29;12.70;99.90
7704;DHT22;3894;49.700;10.770;2023-03-23T18:59:55;12.70;99.90
7704;DHT22;3894;49.700;10.770;2023-03-23T19:02:20;12.70;99.90
7704;DHT22;3894;49.700;10.770;2023-03-23T19:04:47;12.70;99.90
7704;DHT22;3894;49.700;10.770;2023-03-23T19:07:14;12.70;99.90
7704;DHT22;3894;49.700;10.770;2023-03-23T19:09:41;12.60;99.90
7704;DHT22;3894;49.700;10.770;2023-03-23T19:12:08;12.60;99.90
7704;DHT22;3894;49.700;10.770;2023-03-23T19:14:36;12.60;99.90
7704;DHT22;3894;49.700;10.770;2023-03-23T19:17:06;12.60;99.90
7704;DHT22;3894;49.700;10.770;2023-03-23T19:19:37;12.60;99.90
7704;DHT22;3894;49.700;10.770;2023-03-23T19:22:05;12.50;99.90
7704;DHT22;3894;49.700;10.770;2023-03-23T19:24:32;12.50;99.90
7704;DHT22;3894;49.700;10.770;2023-03-23T19:26:58;12.50;99.90
7704;DHT22;3894;49.700;10.770;2023-03-23T19:29:24;12.40;99.90
7704;DHT22;3894;49.700;10.770;2023-03-23T19:31:51;12.40;99.90
7704;DHT22;3894;49.700;10.770;2023-03-23T19:34:17;12.40;99.90
7704;DHT22;3894;49.700;10.770;2023-03-23T19:36:43;12.40;99.90
7704;DHT22;3894;49.700;10.770;2023-03-23T19:39:09;12.40;99.90
7704;DHT22;3894;49.700;10.770;2023-03-23T19:41:35;12.40;99.90
7704;DHT22;3894;49.700;10.770;2023-03-23T19:44:02;12.30;99.90
7704;DHT22;3894;49.700;10.770;2023-03-23T19:46:29;12.30;99.90
7704;DHT22;3894;49.700;10.770;2023-03-23T19:48:54;12.30;99.90
7704;DHT22;3894;49.700;10.770;2023-03-23T19:51:21;12.30;99.90
7704;DHT22;3894;49.700;10.770;2023-03-23T19:53:48;12.20;99.90
7704;DHT22;3894;49.700;10.770;2023-03-23T19:56:16;12.20;99.90
7704;DHT22;3894;49.700;10.770;2023-03-23T19:58:46;12.20;99.90
7704;DHT22;3894;49.700;10.770;2023-03-23T20:01:17;12.20;99.90
7704;DHT22;3894;49.700;10.770;2023-03-23T20:03:44;12.20;99.90
7704;DHT22;3894;49.700;10.770;2023-03-23T20:06:12;12.20;99.90
7704;DHT22;3894;49.700;10.770;2023-03-23T20:08:40;12.20;99.90
7704;DHT22;3894;49.700;10.770;2023-03-23T20:11:13;12.10;99.90
7704;DHT22;3894;49.700;10.770;2023-03-23T20:13:43;12.10;99.90
7704;DHT22;3894;49.700;10.770;2023-03-23T20:16:13;12.10;99.90
7704;DHT22;3894;49.700;10.770;2023-03-23T20:18:39;12.10;99.90
7704;DHT22;3894;49.700;10.770;2023-03-23T20:21:08;12.00;99.90
7704;DHT22;3894;49.700;10.770;2023-03-23T20:23:37;12.00;99.90
7704;DHT22;3894;49.700;10.770;2023-03-23T20:26:12;12.00;99.90
7704;DHT22;3894;49.700;10.770;2023-03-23T20:28:39;12.00;99.90
7704;DHT22;3894;49.700;10.770;2023-03-23T20:31:13;12.00;99.90
7704;DHT22;3894;49.700;10.770;2023-03-23T20:33:40;12.00;99.90
7704;DHT22;3894;49.700;10.770;2023-03-23T20:36:07;12.00;99.90
7704;DHT22;3894;49.700;10.770;2023-03-23T20:38:34;12.00;99.90
7704;DHT22;3894;49.700;10.770;2023-03-23T20:41:04;11.90;99.90